createdAt,value
2018-09-26T00:00:12.074Z,0.42
2018-09-26T00:01:12.547Z,0.38
2018-09-26T00:02:13.038Z,0.36
2018-09-26T00:03:13.488Z,0.41
2018-09-26T00:04:13.956Z,0.44
2018-09-26T00:05:14.426Z,0.40
2018-09-26T00:06:14.898Z,0.50
2018-09-26T00:07:15.367Z,0.55
2018-09-26T00:08:15.838Z,0.58
2018-09-26T00:09:16.305Z,0.63
2018-09-26T00:10:16.776Z,0.66
2018-09-26T00:11:17.249Z,0.60
2018-09-26T00:12:17.714Z,0.52
2018-09-26T00:13:18.184Z,0.48
2018-09-26T00:14:18.651Z,0.54
2018-09-26T00:15:19.121Z,0.50
2018-09-26T00:16:19.591Z,0.60
2018-09-26T00:17:20.060Z,0.64
2018-09-26T00:18:20.529Z,0.64
2018-09-26T00:19:20.997Z,0.56
2018-09-26T00:20:21.467Z,0.54
2018-09-26T00:21:21.939Z,0.62
2018-09-26T00:22:22.405Z,0.57
2018-09-26T00:23:22.878Z,0.48
2018-09-26T00:24:23.344Z,0.42
2018-09-26T00:25:23.816Z,0.37
2018-09-26T00:26:24.283Z,0.32
2018-09-26T00:27:24.754Z,0.31
2018-09-26T00:28:25.222Z,0.28
2018-09-26T00:29:25.694Z,0.24
2018-09-26T00:30:26.162Z,0.30
2018-09-26T00:31:26.635Z,0.30
2018-09-26T00:32:27.104Z,0.30
2018-09-26T00:33:27.573Z,0.31
2018-09-26T00:34:28.043Z,0.35
2018-09-26T00:35:28.512Z,0.34
2018-09-26T00:36:28.984Z,0.29
2018-09-26T00:37:29.515Z,0.29
2018-09-26T00:38:29.925Z,0.27
2018-09-26T00:39:30.396Z,0.26
2018-09-26T00:40:30.869Z,0.24
2018-09-26T00:41:31.340Z,0.18
2018-09-26T00:42:31.811Z,0.18
2018-09-26T00:43:32.281Z,0.26
2018-09-26T00:44:32.752Z,0.33
2018-09-26T00:45:33.223Z,0.40
2018-09-26T00:46:33.693Z,0.45
2018-09-26T00:47:34.165Z,0.52
2018-09-26T00:48:34.637Z,0.57
2018-09-26T00:49:35.109Z,0.56
2018-09-26T00:50:35.578Z,0.54
2018-09-26T00:51:36.052Z,0.62
2018-09-26T00:52:36.523Z,0.73
2018-09-26T00:53:36.995Z,0.78
2018-09-26T00:54:37.465Z,0.77
2018-09-26T00:55:37.940Z,0.72
2018-09-26T00:56:38.409Z,0.68
2018-09-26T00:57:38.883Z,0.78
2018-09-26T00:58:39.354Z,0.81
2018-09-26T00:59:39.824Z,0.72
2018-09-26T01:00:40.300Z,0.60
2018-09-26T01:01:40.770Z,0.54
2018-09-26T01:02:41.243Z,0.52
2018-09-26T01:03:41.715Z,0.54
2018-09-26T01:04:42.188Z,0.64
2018-09-26T01:05:42.658Z,0.80
2018-09-26T01:06:43.132Z,0.76
2018-09-26T01:07:43.603Z,0.75
2018-09-26T01:08:44.077Z,0.88
2018-09-26T01:09:44.549Z,0.86
2018-09-26T01:10:45.028Z,0.66
2018-09-26T01:11:45.494Z,0.63
2018-09-26T01:12:45.967Z,0.61
2018-09-26T01:13:46.439Z,0.62
2018-09-26T01:14:46.911Z,0.64
2018-09-26T01:15:47.386Z,0.55
2018-09-26T01:16:47.856Z,0.51
2018-09-26T01:17:48.331Z,0.41
2018-09-26T01:18:48.801Z,0.36
2018-09-26T01:19:49.276Z,0.42
2018-09-26T01:20:49.749Z,0.48
2018-09-26T01:21:50.221Z,0.42
2018-09-26T01:22:50.694Z,0.40
2018-09-26T01:23:51.166Z,0.46
2018-09-26T01:24:51.644Z,0.58
2018-09-26T01:25:52.113Z,0.66
2018-09-26T01:26:52.585Z,0.78
2018-09-26T01:27:53.059Z,0.87
2018-09-26T01:28:53.531Z,0.86
2018-09-26T01:29:54.005Z,0.86
2018-09-26T01:30:54.478Z,0.84
2018-09-26T01:31:54.951Z,0.88
2018-09-26T01:32:55.424Z,0.82
2018-09-26T01:33:55.902Z,0.80
2018-09-26T01:34:56.367Z,0.80
2018-09-26T01:35:56.840Z,0.80
2018-09-26T01:36:57.316Z,0.78
2018-09-26T01:37:57.784Z,0.84
2018-09-26T01:38:58.256Z,0.91
2018-09-26T01:39:58.726Z,0.90
2018-09-26T01:40:59.198Z,0.88
2018-09-26T01:41:59.670Z,0.84
2018-09-26T01:43:00.142Z,0.83
2018-09-26T01:44:00.610Z,0.80
2018-09-26T01:45:01.086Z,0.74
2018-09-26T01:46:01.552Z,0.72
2018-09-26T01:47:02.022Z,0.73
2018-09-26T01:48:02.491Z,0.82
2018-09-26T01:49:02.965Z,0.90
2018-09-26T01:50:03.431Z,0.91
2018-09-26T01:51:03.901Z,0.88
2018-09-26T01:52:04.370Z,0.83
2018-09-26T01:53:04.839Z,0.72
2018-09-26T01:54:05.308Z,0.72
2018-09-26T01:55:05.776Z,0.78
2018-09-26T01:56:06.248Z,0.82
2018-09-26T01:57:06.715Z,0.84
2018-09-26T01:58:07.184Z,0.86
2018-09-26T01:59:07.654Z,0.84
2018-09-26T02:00:08.122Z,0.86
2018-09-26T02:01:08.591Z,0.86
2018-09-26T02:02:09.066Z,0.84
2018-09-26T02:03:09.529Z,0.82
2018-09-26T02:04:10.000Z,0.81
2018-09-26T02:05:10.469Z,0.82
2018-09-26T02:06:10.941Z,0.74
2018-09-26T02:07:11.406Z,0.67
2018-09-26T02:08:11.878Z,0.64
2018-09-26T02:09:12.346Z,0.65
2018-09-26T02:10:12.815Z,0.66
2018-09-26T02:11:13.284Z,0.74
2018-09-26T02:12:13.755Z,0.76
2018-09-26T02:13:14.224Z,0.75
2018-09-26T02:14:14.692Z,0.78
2018-09-26T02:15:15.164Z,0.78
2018-09-26T02:16:15.633Z,0.82
2018-09-26T02:17:16.102Z,0.87
2018-09-26T02:18:16.574Z,0.88
2018-09-26T02:19:17.042Z,0.88
2018-09-26T02:20:17.514Z,0.84
2018-09-26T02:21:17.985Z,0.82
2018-09-26T02:22:18.458Z,0.84
2018-09-26T02:23:18.925Z,0.88
2018-09-26T02:24:19.396Z,0.88
2018-09-26T02:25:19.867Z,0.90
2018-09-26T02:26:20.337Z,0.94
2018-09-26T02:27:20.807Z,0.94
2018-09-26T02:28:21.279Z,0.92
2018-09-26T02:29:21.749Z,0.88
2018-09-26T02:30:22.221Z,0.84
2018-09-26T02:31:22.693Z,0.76
2018-09-26T02:32:23.163Z,0.72
2018-09-26T02:33:23.635Z,0.74
2018-09-26T02:34:24.107Z,0.72
2018-09-26T02:35:24.577Z,0.77
2018-09-26T02:36:25.100Z,0.82
2018-09-26T02:37:25.521Z,0.80
2018-09-26T02:38:25.994Z,0.76
2018-09-26T02:39:26.464Z,0.72
2018-09-26T02:40:26.936Z,0.72
2018-09-26T02:41:27.406Z,0.76
2018-09-26T02:42:27.879Z,0.78
2018-09-26T02:43:28.350Z,0.78
2018-09-26T02:44:28.824Z,0.75
2018-09-26T02:45:29.296Z,0.76
2018-09-26T02:46:29.769Z,0.80
2018-09-26T02:47:30.242Z,0.84
2018-09-26T02:48:30.712Z,0.86
2018-09-26T02:49:31.188Z,0.86
2018-09-26T02:50:31.657Z,0.90
2018-09-26T02:51:32.128Z,0.92
2018-09-26T02:52:32.603Z,0.92
2018-09-26T02:53:33.075Z,0.87
2018-09-26T02:54:33.545Z,0.80
2018-09-26T02:55:34.048Z,0.72
2018-09-26T02:56:34.492Z,0.68
2018-09-26T02:57:34.962Z,0.70
2018-09-26T02:58:35.441Z,0.78
2018-09-26T02:59:35.908Z,0.83
2018-09-26T03:00:36.379Z,0.88
2018-09-26T03:01:36.854Z,0.90
2018-09-26T03:02:37.325Z,0.92
2018-09-26T03:03:37.800Z,0.91
2018-09-26T03:04:38.269Z,0.90
2018-09-26T03:05:38.750Z,0.95
2018-09-26T03:06:39.215Z,1.00
2018-09-26T03:07:39.695Z,1.03
2018-09-26T03:08:40.166Z,1.00
2018-09-26T03:09:40.634Z,0.97
2018-09-26T03:10:41.131Z,0.92
2018-09-26T03:11:41.584Z,0.91
2018-09-26T03:12:42.054Z,0.91
2018-09-26T03:13:42.529Z,0.93
2018-09-26T03:14:43.000Z,0.94
2018-09-26T03:15:43.473Z,0.88
2018-09-26T03:16:43.948Z,0.88
2018-09-26T03:17:44.490Z,0.90
2018-09-26T03:18:44.892Z,0.85
2018-09-26T03:19:45.363Z,0.81
2018-09-26T03:20:45.838Z,0.75
2018-09-26T03:21:46.310Z,0.74
2018-09-26T03:22:46.781Z,0.78
2018-09-26T03:23:47.253Z,0.88
2018-09-26T03:24:47.726Z,0.94
2018-09-26T03:25:48.200Z,0.99
2018-09-26T03:26:48.670Z,1.04
2018-09-26T03:27:49.141Z,1.10
2018-09-26T03:28:49.612Z,1.14
2018-09-26T03:29:50.084Z,1.15
2018-09-26T03:30:50.554Z,1.21
2018-09-26T03:31:51.025Z,1.21
2018-09-26T03:32:51.492Z,1.22
2018-09-26T03:33:52.058Z,1.18
2018-09-26T03:34:52.439Z,1.12
2018-09-26T03:35:52.903Z,1.05
2018-09-26T03:36:53.374Z,1.00
2018-09-26T03:37:53.844Z,1.04
2018-09-26T03:38:54.319Z,1.05
2018-09-26T03:39:54.783Z,1.03
2018-09-26T03:40:55.252Z,1.04
2018-09-26T03:41:55.722Z,1.00
2018-09-26T03:42:56.192Z,0.98
2018-09-26T03:43:56.658Z,1.00
2018-09-26T03:44:57.128Z,1.03
2018-09-26T03:45:57.598Z,1.10
2018-09-26T03:46:58.066Z,1.20
2018-09-26T03:47:58.535Z,1.30
2018-09-26T03:48:59.005Z,1.40
2018-09-26T03:49:59.473Z,1.44
2018-09-26T03:50:59.943Z,1.46
2018-09-26T03:52:00.411Z,1.53
2018-09-26T03:53:00.881Z,1.55
2018-09-26T03:54:01.354Z,1.54
2018-09-26T03:55:01.826Z,1.48
2018-09-26T03:56:02.289Z,1.45
2018-09-26T03:57:02.758Z,1.48
2018-09-26T03:58:03.229Z,1.49
2018-09-26T03:59:03.702Z,1.50
2018-09-26T04:00:04.168Z,1.48
2018-09-26T04:01:04.636Z,1.45
2018-09-26T04:02:05.111Z,1.44
2018-09-26T04:03:05.579Z,1.42
2018-09-26T04:04:06.048Z,1.44
2018-09-26T04:05:06.587Z,1.46
2018-09-26T04:06:06.988Z,1.46
2018-09-26T04:07:07.463Z,1.47
2018-09-26T04:08:07.927Z,1.46
2018-09-26T04:09:08.397Z,1.42
2018-09-26T04:10:08.869Z,1.44
2018-09-26T04:11:09.340Z,1.46
2018-09-26T04:12:09.809Z,1.46
2018-09-26T04:13:10.363Z,1.46
2018-09-26T04:14:10.754Z,1.48
2018-09-26T04:15:11.223Z,1.50
2018-09-26T04:16:11.694Z,1.55
2018-09-26T04:17:12.166Z,1.57
2018-09-26T04:18:12.636Z,1.64
2018-09-26T04:19:13.109Z,1.70
2018-09-26T04:20:13.586Z,1.75
2018-09-26T04:21:14.048Z,1.78
2018-09-26T04:22:14.520Z,1.79
2018-09-26T04:23:14.991Z,1.80
2018-09-26T04:24:15.463Z,1.80
2018-09-26T04:25:15.940Z,1.82
2018-09-26T04:26:16.511Z,1.87
2018-09-26T04:27:16.947Z,1.90
2018-09-26T04:28:17.351Z,1.93
2018-09-26T04:29:17.820Z,2.01
2018-09-26T04:30:18.383Z,2.08
2018-09-26T04:31:18.766Z,2.18
2018-09-26T04:32:19.238Z,2.24
2018-09-26T04:33:19.929Z,2.26
2018-09-26T04:34:20.182Z,2.26
2018-09-26T04:35:20.654Z,2.28
2018-09-26T04:36:21.126Z,2.26
2018-09-26T04:37:21.598Z,2.24
2018-09-26T04:38:22.069Z,2.21
2018-09-26T04:39:22.545Z,2.16
2018-09-26T04:40:23.013Z,2.14
2018-09-26T04:41:23.488Z,2.14
2018-09-26T04:42:23.959Z,2.12
2018-09-26T04:43:24.435Z,2.08
2018-09-26T04:44:24.904Z,2.06
2018-09-26T04:45:25.377Z,2.06
2018-09-26T04:46:25.851Z,2.08
2018-09-26T04:47:26.323Z,2.13
2018-09-26T04:48:26.794Z,2.13
2018-09-26T04:49:27.269Z,2.11
2018-09-26T04:50:27.741Z,2.12
2018-09-26T04:51:28.215Z,2.14
2018-09-26T04:52:28.685Z,2.21
2018-09-26T04:53:29.159Z,2.26
2018-09-26T04:54:29.630Z,2.30
2018-09-26T04:55:30.105Z,2.38
2018-09-26T04:56:30.578Z,2.44
2018-09-26T04:57:31.051Z,2.50
2018-09-26T04:58:31.525Z,2.50
2018-09-26T04:59:32.000Z,2.49
2018-09-26T05:00:32.470Z,2.44
2018-09-26T05:01:32.943Z,2.44
2018-09-26T05:02:33.416Z,2.44
2018-09-26T05:03:33.891Z,2.42
2018-09-26T05:04:34.363Z,2.38
2018-09-26T05:05:34.838Z,2.42
2018-09-26T05:06:35.309Z,2.46
2018-09-26T05:07:35.778Z,2.51
2018-09-26T05:08:36.251Z,2.54
2018-09-26T05:09:36.724Z,2.66
2018-09-26T05:10:37.194Z,2.74
2018-09-26T05:11:37.667Z,2.80
2018-09-26T05:12:38.137Z,2.85
2018-09-26T05:13:38.610Z,2.88
2018-09-26T05:14:39.098Z,2.90
2018-09-26T05:15:39.550Z,2.92
2018-09-26T05:16:40.020Z,2.96
2018-09-26T05:17:40.490Z,3.04
2018-09-26T05:18:40.963Z,3.10
2018-09-26T05:19:41.434Z,3.08
2018-09-26T05:20:42.103Z,3.10
2018-09-26T05:21:42.371Z,3.13
2018-09-26T05:22:42.868Z,3.11
2018-09-26T05:23:43.311Z,3.12
2018-09-26T05:24:43.780Z,3.20
2018-09-26T05:25:44.247Z,3.25
2018-09-26T05:26:44.716Z,3.30
2018-09-26T05:27:45.189Z,3.38
2018-09-26T05:28:45.655Z,3.40
2018-09-26T05:29:46.128Z,3.44
2018-09-26T05:30:46.595Z,3.50
2018-09-26T05:31:47.062Z,3.58
2018-09-26T05:32:47.535Z,3.70
2018-09-26T05:33:48.005Z,3.77
2018-09-26T05:34:48.470Z,3.84
2018-09-26T05:35:48.940Z,3.90
2018-09-26T05:36:49.410Z,3.92
2018-09-26T05:37:49.878Z,3.88
2018-09-26T05:38:50.348Z,3.90
2018-09-26T05:39:50.818Z,3.92
2018-09-26T05:40:51.285Z,3.94
2018-09-26T05:41:51.838Z,3.84
2018-09-26T05:42:52.229Z,3.76
2018-09-26T05:43:52.697Z,3.64
2018-09-26T05:44:53.166Z,3.58
2018-09-26T05:45:53.637Z,3.52
2018-09-26T05:46:54.107Z,3.54
2018-09-26T05:47:54.575Z,3.56
2018-09-26T05:48:55.048Z,3.58
2018-09-26T05:49:55.517Z,3.68
2018-09-26T05:50:55.988Z,3.72
2018-09-26T05:51:56.462Z,3.80
2018-09-26T05:52:56.930Z,3.86
2018-09-26T05:53:57.401Z,3.92
2018-09-26T05:54:57.870Z,3.96
2018-09-26T05:55:58.346Z,3.98
2018-09-26T05:56:58.813Z,4.01
2018-09-26T05:57:59.286Z,4.06
2018-09-26T05:58:59.756Z,4.12
2018-09-26T06:00:00.230Z,4.16
2018-09-26T06:01:00.700Z,4.20
2018-09-26T06:02:01.174Z,4.23
2018-09-26T06:03:01.644Z,4.30
2018-09-26T06:04:02.115Z,4.31
2018-09-26T06:05:02.590Z,4.45
2018-09-26T06:06:03.060Z,4.49
2018-09-26T06:07:03.534Z,4.54
2018-09-26T06:08:04.006Z,4.58
2018-09-26T06:09:04.478Z,4.64
2018-09-26T06:10:04.951Z,4.79
2018-09-26T06:11:05.426Z,4.93
2018-09-26T06:12:05.895Z,5.08
2018-09-26T06:13:06.378Z,5.18
2018-09-26T06:14:06.841Z,5.25
2018-09-26T06:15:07.316Z,5.24
2018-09-26T06:16:07.790Z,5.19
2018-09-26T06:17:08.260Z,5.11
2018-09-26T06:18:09.075Z,5.04
2018-09-26T06:19:09.207Z,5.02
2018-09-26T06:20:09.682Z,5.04
2018-09-26T06:21:10.156Z,5.08
2018-09-26T06:22:10.640Z,5.18
2018-09-26T06:23:11.102Z,5.26
2018-09-26T06:24:11.575Z,5.26
2018-09-26T06:25:12.049Z,5.21
2018-09-26T06:26:12.520Z,5.27
2018-09-26T06:27:12.994Z,5.38
2018-09-26T06:28:13.468Z,5.54
2018-09-26T06:29:13.942Z,5.70
2018-09-26T06:30:14.413Z,5.80
2018-09-26T06:31:14.885Z,5.90
2018-09-26T06:32:15.561Z,5.96
2018-09-26T06:33:15.830Z,5.96
2018-09-26T06:34:16.313Z,5.94
2018-09-26T06:35:16.775Z,5.86
2018-09-26T06:36:17.247Z,5.80
2018-09-26T06:37:17.717Z,5.76
2018-09-26T06:38:18.189Z,5.72
2018-09-26T06:39:18.661Z,5.66
2018-09-26T06:40:19.139Z,5.68
2018-09-26T06:41:19.602Z,5.64
2018-09-26T06:42:20.075Z,5.60
2018-09-26T06:43:20.543Z,5.58
2018-09-26T06:44:21.015Z,5.58
2018-09-26T06:45:21.484Z,5.55
2018-09-26T06:46:21.954Z,5.62
2018-09-26T06:47:22.465Z,5.74
2018-09-26T06:48:22.996Z,5.85
2018-09-26T06:49:23.369Z,6.00
2018-09-26T06:50:23.833Z,6.14
2018-09-26T06:51:24.303Z,6.25
2018-09-26T06:52:24.774Z,6.32
2018-09-26T06:53:25.295Z,6.36
2018-09-26T06:54:25.714Z,6.42
2018-09-26T06:55:26.188Z,6.40
2018-09-26T06:56:26.654Z,6.36
2018-09-26T06:57:27.124Z,6.24
2018-09-26T06:58:27.595Z,6.16
2018-09-26T06:59:28.064Z,6.10
2018-09-26T07:00:28.533Z,6.04
2018-09-26T07:01:29.021Z,5.94
2018-09-26T07:02:29.474Z,5.95
2018-09-26T07:03:29.947Z,5.98
2018-09-26T07:04:30.417Z,6.05
2018-09-26T07:05:30.886Z,6.04
2018-09-26T07:06:31.357Z,6.07
2018-09-26T07:07:31.828Z,6.14
2018-09-26T07:08:32.299Z,6.24
2018-09-26T07:09:32.769Z,6.30
2018-09-26T07:10:33.245Z,6.36
2018-09-26T07:11:33.714Z,6.42
2018-09-26T07:12:34.187Z,6.48
2018-09-26T07:13:34.658Z,6.58
2018-09-26T07:14:35.131Z,6.72
2018-09-26T07:15:35.601Z,6.88
2018-09-26T07:16:36.075Z,7.05
2018-09-26T07:17:36.546Z,7.28
2018-09-26T07:18:37.021Z,7.47
2018-09-26T07:19:37.493Z,7.66
2018-09-26T07:20:37.967Z,7.82
2018-09-26T07:21:38.439Z,7.92
2018-09-26T07:22:38.916Z,8.02
2018-09-26T07:23:39.386Z,8.07
2018-09-26T07:24:39.860Z,8.19
2018-09-26T07:25:40.333Z,8.25
2018-09-26T07:26:40.849Z,8.30
2018-09-26T07:27:41.279Z,8.38
2018-09-26T07:28:41.754Z,8.54
2018-09-26T07:29:42.230Z,8.74
2018-09-26T07:30:42.702Z,8.84
2018-09-26T07:31:43.179Z,8.74
2018-09-26T07:32:43.655Z,8.54
2018-09-26T07:33:44.125Z,8.36
2018-09-26T07:34:44.601Z,8.24
2018-09-26T07:35:45.074Z,8.12
2018-09-26T07:36:45.548Z,8.22
2018-09-26T07:37:46.025Z,8.34
2018-09-26T07:38:46.499Z,8.40
2018-09-26T07:39:46.972Z,8.46
2018-09-26T07:40:47.445Z,8.54
2018-09-26T07:41:47.919Z,8.62
2018-09-26T07:42:48.393Z,8.72
2018-09-26T07:43:48.867Z,8.80
2018-09-26T07:44:49.340Z,8.87
2018-09-26T07:45:49.885Z,8.94
2018-09-26T07:46:50.290Z,9.00
2018-09-26T07:47:50.760Z,9.10
2018-09-26T07:48:51.232Z,9.24
2018-09-26T07:49:51.703Z,9.44
2018-09-26T07:50:52.178Z,9.69
2018-09-26T07:51:52.649Z,9.92
2018-09-26T07:52:53.134Z,10.16
2018-09-26T07:53:53.595Z,10.26
2018-09-26T07:54:54.066Z,10.14
2018-09-26T07:55:54.538Z,9.96
2018-09-26T07:56:55.009Z,9.82
2018-09-26T07:57:55.484Z,9.82
2018-09-26T07:58:56.006Z,9.74
2018-09-26T08:00:56.894Z,9.28
2018-09-26T08:01:57.364Z,9.05
2018-09-26T08:02:57.836Z,8.82
2018-09-26T08:03:58.307Z,8.72
2018-09-26T08:04:58.778Z,8.72
2018-09-26T08:05:59.252Z,8.74
2018-09-26T08:06:59.722Z,8.92
2018-09-26T08:08:00.192Z,9.12
2018-09-26T08:09:00.663Z,9.15
2018-09-26T08:10:01.132Z,9.03
2018-09-26T08:11:01.603Z,8.89
2018-09-26T08:12:02.074Z,8.75
2018-09-26T08:13:02.545Z,8.66
2018-09-26T08:14:03.017Z,8.64
2018-09-26T08:15:03.489Z,8.72
2018-09-26T08:16:03.959Z,8.74
2018-09-26T08:17:04.434Z,8.72
2018-09-26T08:18:04.911Z,8.79
2018-09-26T08:19:05.373Z,8.89
2018-09-26T08:20:05.849Z,9.15
2018-09-26T08:21:06.318Z,9.38
2018-09-26T08:22:06.791Z,9.58
2018-09-26T08:23:07.268Z,9.66
2018-09-26T08:24:07.808Z,9.34
2018-09-26T08:25:08.209Z,9.03
2018-09-26T08:26:08.682Z,8.69
2018-09-26T08:27:09.155Z,8.37
2018-09-26T08:28:09.629Z,8.08
2018-09-26T08:29:10.106Z,8.00
2018-09-26T08:30:10.576Z,8.06
2018-09-26T08:31:11.051Z,8.15
2018-09-26T08:32:11.528Z,8.24
2018-09-26T08:33:12.000Z,8.42
2018-09-26T08:34:12.473Z,8.63
2018-09-26T08:35:12.949Z,8.81
2018-09-26T08:36:13.423Z,8.95
2018-09-26T08:37:13.898Z,8.94
2018-09-26T08:38:14.372Z,8.95
2018-09-26T08:39:14.850Z,8.98
2018-09-26T08:40:15.324Z,9.01
2018-09-26T08:41:15.800Z,8.94
2018-09-26T08:42:16.273Z,8.96
2018-09-26T08:43:16.751Z,8.96
2018-09-26T08:44:17.224Z,8.90
2018-09-26T08:45:17.700Z,8.84
2018-09-26T08:46:18.173Z,8.84
2018-09-26T08:47:18.648Z,8.56
2018-09-26T08:48:19.123Z,8.42
2018-09-26T08:49:19.599Z,8.52
2018-09-26T08:50:20.074Z,8.52
2018-09-26T08:51:20.547Z,8.49
2018-09-26T08:52:21.023Z,8.64
2018-09-26T08:53:21.497Z,8.78
2018-09-26T08:54:21.971Z,8.90
2018-09-26T08:55:22.445Z,9.10
2018-09-26T08:56:22.924Z,9.23
2018-09-26T08:57:23.395Z,9.34
2018-09-26T08:58:23.867Z,9.46
2018-09-26T08:59:24.341Z,9.51
2018-09-26T09:00:24.816Z,9.30
2018-09-26T09:01:25.289Z,9.19
2018-09-26T09:02:25.808Z,9.03
2018-09-26T09:03:26.235Z,8.75
2018-09-26T09:04:26.708Z,8.50
2018-09-26T09:05:27.181Z,8.33
2018-09-26T09:06:27.654Z,8.13
2018-09-26T09:07:28.128Z,7.92
2018-09-26T09:08:28.600Z,7.68
2018-09-26T09:09:29.073Z,7.60
2018-09-26T09:10:29.545Z,7.56
2018-09-26T09:11:30.033Z,7.67
2018-09-26T09:12:30.490Z,7.88
2018-09-26T09:13:30.965Z,8.16
2018-09-26T09:14:31.541Z,8.49
2018-09-26T09:15:31.910Z,8.70
2018-09-26T09:16:32.381Z,8.90
2018-09-26T09:17:32.854Z,9.06
2018-09-26T09:18:33.326Z,9.22
2018-09-26T09:19:33.804Z,9.39
2018-09-26T09:20:34.269Z,9.30
2018-09-26T09:21:34.742Z,9.17
2018-09-26T09:22:35.213Z,9.06
2018-09-26T09:23:35.682Z,9.14
2018-09-26T09:24:36.156Z,9.28
2018-09-26T09:25:36.628Z,9.36
2018-09-26T09:26:37.104Z,9.43
2018-09-26T09:27:37.649Z,9.02
2018-09-26T09:28:38.044Z,8.51
2018-09-26T09:29:38.516Z,8.22
2018-09-26T09:30:38.985Z,8.18
2018-09-26T09:31:39.464Z,8.16
2018-09-26T09:32:39.934Z,8.04
2018-09-26T09:33:40.400Z,8.12
2018-09-26T09:34:40.870Z,8.20
2018-09-26T09:35:41.342Z,8.20
2018-09-26T09:36:41.841Z,8.23
2018-09-26T09:37:42.285Z,8.25
2018-09-26T09:38:42.755Z,8.25
2018-09-26T09:39:43.229Z,8.23
2018-09-26T09:40:43.696Z,8.08
2018-09-26T09:41:44.171Z,7.91
2018-09-26T09:42:44.642Z,7.84
2018-09-26T09:43:45.110Z,7.84
2018-09-26T09:44:45.615Z,7.78
2018-09-26T09:45:46.053Z,7.80
2018-09-26T09:46:46.523Z,7.79
2018-09-26T09:47:46.995Z,7.74
2018-09-26T09:48:47.467Z,7.66
2018-09-26T09:49:47.939Z,7.54
2018-09-26T09:50:48.410Z,7.36
2018-09-26T09:51:48.885Z,7.27
2018-09-26T09:52:49.355Z,7.26
2018-09-26T09:53:49.826Z,7.30
2018-09-26T09:54:50.300Z,7.34
2018-09-26T09:55:50.772Z,7.34
2018-09-26T09:56:51.266Z,7.36
2018-09-26T09:57:51.720Z,7.37
2018-09-26T09:58:52.191Z,7.36
2018-09-26T09:59:52.665Z,7.34
2018-09-26T10:00:53.139Z,7.37
2018-09-26T10:01:53.616Z,7.42
2018-09-26T10:02:54.231Z,7.52
2018-09-26T10:03:54.603Z,7.62
2018-09-26T10:04:55.037Z,7.64
2018-09-26T10:05:55.514Z,7.82
2018-09-26T10:06:55.989Z,7.94
2018-09-26T10:07:56.463Z,8.10
2018-09-26T10:08:56.977Z,8.22
2018-09-26T10:09:57.415Z,8.39
2018-09-26T10:10:57.890Z,8.53
2018-09-26T10:11:58.367Z,8.66
2018-09-26T10:12:58.843Z,8.78
2018-09-26T10:13:59.321Z,9.00
2018-09-26T10:14:59.796Z,9.24
2018-09-26T10:16:00.272Z,9.30
2018-09-26T10:17:00.747Z,9.30
2018-09-26T10:18:01.224Z,9.44
2018-09-26T10:19:01.697Z,9.49
2018-09-26T10:20:02.175Z,9.51
2018-09-26T10:21:02.653Z,9.52
2018-09-26T10:22:03.130Z,9.56
2018-09-26T10:23:03.601Z,9.71
2018-09-26T10:24:04.077Z,9.79
2018-09-26T10:25:04.566Z,9.64
2018-09-26T10:26:05.049Z,9.42
2018-09-26T10:27:05.506Z,9.26
2018-09-26T10:28:05.983Z,9.03
2018-09-26T10:29:06.459Z,8.79
2018-09-26T10:30:06.934Z,8.70
2018-09-26T10:31:07.409Z,8.64
2018-09-26T10:32:07.893Z,8.57
2018-09-26T10:33:08.361Z,8.64
2018-09-26T10:34:08.835Z,8.81
2018-09-26T10:35:09.311Z,8.96
2018-09-26T10:36:09.788Z,9.11
2018-09-26T10:37:10.262Z,9.10
2018-09-26T10:38:10.792Z,9.14
2018-09-26T10:39:11.213Z,9.30
2018-09-26T10:40:11.791Z,9.52
2018-09-26T10:41:12.179Z,9.81
2018-09-26T10:42:12.639Z,10.14
2018-09-26T10:43:13.115Z,10.55
2018-09-26T10:44:13.637Z,10.95
2018-09-26T10:45:14.066Z,10.95
2018-09-26T10:46:14.538Z,10.78
2018-09-26T10:47:15.013Z,10.47
2018-09-26T10:48:15.487Z,10.22
2018-09-26T10:49:15.962Z,10.19
2018-09-26T10:50:16.463Z,10.18
2018-09-26T10:51:16.911Z,10.38
2018-09-26T10:52:17.387Z,10.49
2018-09-26T10:53:17.859Z,10.35
2018-09-26T10:54:18.337Z,10.32
2018-09-26T10:55:18.809Z,10.43
2018-09-26T10:56:19.399Z,10.69
2018-09-26T10:57:19.759Z,10.92
2018-09-26T10:58:20.233Z,11.09
2018-09-26T10:59:20.709Z,11.20
2018-09-26T11:00:21.182Z,11.33
2018-09-26T11:01:21.657Z,11.45
2018-09-26T11:02:22.184Z,11.46
2018-09-26T11:03:22.606Z,11.34
2018-09-26T11:04:23.144Z,11.26
2018-09-26T11:05:23.555Z,11.32
2018-09-26T11:06:24.031Z,11.27
2018-09-26T11:07:24.503Z,11.06
2018-09-26T11:08:25.064Z,10.76
2018-09-26T11:09:25.452Z,10.77
2018-09-26T11:10:25.984Z,10.64
2018-09-26T11:11:26.399Z,10.74
2018-09-26T11:12:26.917Z,11.05
2018-09-26T11:13:27.352Z,11.28
2018-09-26T11:14:27.823Z,11.39
2018-09-26T11:15:28.450Z,11.30
2018-09-26T11:16:28.824Z,11.14
2018-09-26T11:17:29.247Z,11.01
2018-09-26T11:18:29.720Z,10.76
2018-09-26T11:19:30.194Z,10.81
2018-09-26T11:20:30.669Z,10.98
2018-09-26T11:21:31.144Z,11.00
2018-09-26T11:22:31.618Z,11.14
2018-09-26T11:23:32.090Z,11.42
2018-09-26T11:24:32.566Z,11.42
2018-09-26T11:25:33.039Z,11.44
2018-09-26T11:26:33.518Z,11.57
2018-09-26T11:27:33.988Z,11.76
2018-09-26T11:28:34.462Z,11.84
2018-09-26T11:29:34.939Z,11.93
2018-09-26T11:30:35.461Z,11.94
2018-09-26T11:31:35.884Z,11.84
2018-09-26T11:32:36.360Z,11.86
2018-09-26T11:33:36.848Z,11.79
2018-09-26T11:34:37.309Z,11.46
2018-09-26T11:35:37.782Z,11.14
2018-09-26T11:36:38.256Z,11.08
2018-09-26T11:37:38.740Z,11.05
2018-09-26T11:38:39.244Z,10.82
2018-09-26T11:39:39.684Z,10.38
2018-09-26T11:40:40.153Z,9.90
2018-09-26T11:41:40.627Z,9.50
2018-09-26T11:42:41.105Z,9.18
2018-09-26T11:43:41.576Z,8.94
2018-09-26T11:44:42.080Z,8.73
2018-09-26T11:45:42.523Z,8.50
2018-09-26T11:46:42.998Z,8.34
2018-09-26T11:47:43.471Z,8.29
2018-09-26T11:48:43.945Z,8.26
2018-09-26T11:49:44.424Z,8.36
2018-09-26T11:50:44.897Z,8.62
2018-09-26T11:51:45.370Z,8.84
2018-09-26T11:52:45.843Z,9.04
2018-09-26T11:53:46.317Z,9.22
2018-09-26T11:54:46.792Z,9.18
2018-09-26T11:55:47.294Z,9.09
2018-09-26T11:56:47.743Z,9.08
2018-09-26T11:57:48.215Z,9.00
2018-09-26T11:58:48.691Z,8.96
2018-09-26T11:59:49.164Z,8.91
2018-09-26T12:00:49.636Z,8.81
2018-09-26T12:01:50.113Z,8.74
2018-09-26T12:02:50.588Z,8.80
2018-09-26T12:03:51.061Z,8.84
2018-09-26T12:04:51.536Z,8.80
2018-09-26T12:05:52.011Z,8.94
2018-09-26T12:06:52.487Z,9.15
2018-09-26T12:07:52.959Z,9.38
2018-09-26T12:08:53.433Z,9.50
2018-09-26T12:09:53.909Z,9.48
2018-09-26T12:10:54.386Z,9.32
2018-09-26T12:11:54.859Z,9.31
2018-09-26T12:12:55.333Z,9.30
2018-09-26T12:13:55.875Z,9.36
2018-09-26T12:14:56.281Z,9.48
2018-09-26T12:15:56.756Z,9.58
2018-09-26T12:16:57.233Z,9.64
2018-09-26T12:17:57.710Z,9.54
2018-09-26T12:18:58.181Z,9.67
2018-09-26T12:19:58.662Z,9.82
2018-09-26T12:20:59.135Z,9.88
2018-09-26T12:21:59.639Z,10.02
2018-09-26T12:23:00.080Z,10.30
2018-09-26T12:24:00.554Z,10.49
2018-09-26T12:25:01.033Z,10.26
2018-09-26T12:26:01.505Z,9.98
2018-09-26T12:27:01.985Z,9.88
2018-09-26T12:28:02.455Z,9.83
2018-09-26T12:29:02.930Z,9.87
2018-09-26T12:30:03.407Z,9.77
2018-09-26T12:31:03.880Z,9.66
2018-09-26T12:32:04.355Z,9.72
2018-09-26T12:33:04.832Z,10.09
2018-09-26T12:34:05.342Z,10.50
2018-09-26T12:35:05.782Z,10.65
2018-09-26T12:36:06.263Z,10.54
2018-09-26T12:37:06.731Z,10.36
2018-09-26T12:38:07.205Z,10.36
2018-09-26T12:39:07.680Z,10.42
2018-09-26T12:40:08.213Z,10.39
2018-09-26T12:41:08.631Z,10.52
2018-09-26T12:42:09.109Z,10.49
2018-09-26T12:43:09.583Z,10.64
2018-09-26T12:44:10.060Z,10.88
2018-09-26T12:45:10.532Z,11.02
2018-09-26T12:46:11.020Z,10.67
2018-09-26T12:47:11.505Z,10.31
2018-09-26T12:48:12.047Z,9.80
2018-09-26T12:49:12.433Z,9.27
2018-09-26T12:50:12.909Z,8.86
2018-09-26T12:51:13.387Z,8.61
2018-09-26T12:52:13.893Z,8.38
2018-09-26T12:53:14.334Z,8.22
2018-09-26T12:54:14.812Z,7.96
2018-09-26T12:55:15.286Z,7.90
2018-09-26T12:56:15.761Z,7.95
2018-09-26T12:57:16.238Z,8.06
2018-09-26T12:58:16.723Z,8.33
2018-09-26T12:59:17.190Z,8.46
2018-09-26T13:00:17.695Z,8.20
2018-09-26T13:01:18.141Z,8.09
2018-09-26T13:02:18.626Z,8.02
2018-09-26T13:03:19.094Z,7.94
2018-09-26T13:04:19.631Z,7.93
2018-09-26T13:05:20.044Z,7.94
2018-09-26T13:06:20.526Z,8.24
2018-09-26T13:07:20.996Z,8.62
2018-09-26T13:08:21.486Z,8.51
2018-09-26T13:09:21.946Z,8.34
2018-09-26T13:10:22.443Z,8.32
2018-09-26T13:11:22.900Z,8.37
2018-09-26T13:12:23.462Z,8.46
2018-09-26T13:13:23.851Z,8.94
2018-09-26T13:14:24.387Z,9.42
2018-09-26T13:15:24.804Z,9.63
2018-09-26T13:16:25.330Z,10.00
2018-09-26T13:17:25.755Z,10.26
2018-09-26T13:18:26.311Z,10.04
2018-09-26T13:19:26.708Z,10.13
2018-09-26T13:20:27.299Z,10.12
2018-09-26T13:21:27.660Z,10.08
2018-09-26T13:22:28.137Z,10.05